Time;durP1;ratioP1;P1;durP2;ratioP2;P2;SDS_P1;SDS_P2;PMS_P1;PMS_P2;Temp;Humidity;BMP_temperature;BMP_pressure;BME280_temperature;BME280_humidity;BME280_pressure;Samples;Min_cycle;Max_cycle;Signal;HPM_P1;HPM_P2
2023/07/21 00:00:13;;;;;;;8.77;4.78;;;14.90;99.90;;;;;;5078845;28;20048;-58
2023/07/21 00:02:41;;;;;;;8.63;4.32;;;14.90;99.90;;;;;;5079011;28;20104;-57
2023/07/21 00:05:07;;;;;;;9.25;4.57;;;14.80;99.90;;;;;;5079604;28;20045;-58
2023/07/21 00:07:35;;;;;;;8.75;4.55;;;14.80;99.90;;;;;;5078263;28;20037;-58
2023/07/21 00:10:07;;;;;;;9.25;4.45;;;14.80;99.90;;;;;;5071706;28;20036;-58
2023/07/21 00:12:34;;;;;;;9.25;5.05;;;14.80;99.90;;;;;;5068139;28;20493;-57
2023/07/21 00:15:00;;;;;;;7.50;4.10;;;14.70;99.90;;;;;;5059289;28;20071;-60
2023/07/21 00:17:28;;;;;;;9.13;4.50;;;14.80;99.90;;;;;;5058914;28;20057;-61
2023/07/21 00:19:54;;;;;;;7.70;4.70;;;14.80;99.90;;;;;;5057516;28;20126;-61
2023/07/21 00:22:19;;;;;;;8.55;4.07;;;14.70;99.90;;;;;;5058131;28;20061;-60
2023/07/21 00:24:45;;;;;;;7.20;3.85;;;14.60;99.90;;;;;;5058082;28;20084;-61
2023/07/21 00:27:11;;;;;;;10.30;4.50;;;14.70;99.90;;;;;;5059193;28;20073;-61
2023/07/21 00:29:37;;;;;;;8.10;4.07;;;14.60;99.90;;;;;;5057607;28;20040;-61
2023/07/21 00:32:03;;;;;;;7.78;3.80;;;14.60;99.90;;;;;;5058460;28;20083;-61
2023/07/21 00:34:28;;;;;;;10.63;4.32;;;14.60;99.90;;;;;;5058666;28;20045;-61
2023/07/21 00:36:56;;;;;;;8.95;4.00;;;14.50;99.90;;;;;;5058102;28;20041;-61
2023/07/21 00:39:21;;;;;;;11.07;4.25;;;14.50;99.90;;;;;;5058987;28;20044;-61
2023/07/21 00:41:47;;;;;;;8.82;3.80;;;14.40;99.90;;;;;;5057959;28;20036;-61
2023/07/21 00:44:13;;;;;;;10.20;4.05;;;14.40;99.90;;;;;;5059072;28;20041;-61
2023/07/21 00:46:39;;;;;;;8.25;4.40;;;14.40;99.90;;;;;;5057405;28;20071;-61
2023/07/21 00:49:05;;;;;;;7.55;4.38;;;14.30;99.90;;;;;;5058877;28;20033;-61
2023/07/21 00:51:31;;;;;;;8.55;3.90;;;14.20;99.90;;;;;;5058051;28;20433;-60
2023/07/21 00:53:57;;;;;;;7.15;3.67;;;14.30;99.90;;;;;;5070393;28;20091;-60
2023/07/21 00:56:24;;;;;;;7.22;3.30;;;14.20;99.90;;;;;;5078518;28;20041;-61
2023/07/21 00:58:49;;;;;;;8.88;3.80;;;14.20;99.90;;;;;;5076228;28;20048;-61
2023/07/21 01:01:15;;;;;;;7.47;3.80;;;14.20;99.90;;;;;;5078894;28;20090;-60
2023/07/21 01:03:41;;;;;;;8.23;3.60;;;14.20;99.90;;;;;;5077027;28;20072;-61
2023/07/21 01:06:08;;;;;;;8.00;3.40;;;14.30;99.90;;;;;;5078617;28;20051;-58
2023/07/21 01:08:35;;;;;;;8.23;3.85;;;14.20;99.90;;;;;;5077314;28;20043;-58
2023/07/21 01:11:01;;;;;;;9.35;3.63;;;14.20;99.90;;;;;;5077870;28;20054;-58
2023/07/21 01:13:27;;;;;;;9.20;3.70;;;14.20;99.90;;;;;;5078418;28;20048;-58
2023/07/21 01:15:55;;;;;;;8.07;3.55;;;14.10;99.90;;;;;;5077747;28;20055;-58
2023/07/21 01:18:21;;;;;;;8.25;3.75;;;14.20;99.90;;;;;;5078350;28;20055;-58
2023/07/21 01:20:48;;;;;;;7.90;4.38;;;14.20;99.90;;;;;;5077047;28;20262;-58
2023/07/21 01:23:21;;;;;;;8.65;3.90;;;14.10;99.90;;;;;;5078750;28;20052;-59
2023/07/21 01:25:50;;;;;;;7.07;3.78;;;14.10;99.90;;;;;;5077582;28;20079;-60
2023/07/21 01:28:17;;;;;;;8.05;3.63;;;14.00;99.90;;;;;;5076201;28;20554;-61
2023/07/21 01:30:48;;;;;;;7.55;3.58;;;13.90;99.90;;;;;;5077001;28;20040;-61
2023/07/21 01:33:20;;;;;;;7.97;3.50;;;13.90;99.90;;;;;;5077074;28;20060;-61
2023/07/21 01:35:48;;;;;;;8.60;3.70;;;13.90;99.90;;;;;;5078556;28;20040;-61
2023/07/21 01:38:15;;;;;;;7.65;3.95;;;14.00;99.90;;;;;;5075228;28;20044;-61
2023/07/21 01:40:42;;;;;;;8.55;4.25;;;13.90;99.90;;;;;;5078294;28;20478;-61
2023/07/21 01:43:08;;;;;;;8.05;3.95;;;13.90;99.90;;;;;;5077836;28;20048;-60
2023/07/21 01:45:34;;;;;;;8.38;4.47;;;13.90;99.90;;;;;;5080296;28;20048;-61
2023/07/21 01:48:00;;;;;;;7.93;4.07;;;13.90;99.90;;;;;;5082556;28;20060;-61
2023/07/21 01:50:27;;;;;;;8.55;4.07;;;13.90;99.90;;;;;;5081207;28;20052;-61
2023/07/21 01:52:54;;;;;;;9.15;3.80;;;13.90;99.90;;;;;;5082279;28;20029;-61
2023/07/21 01:55:26;;;;;;;8.05;3.65;;;13.90;99.90;;;;;;5080777;28;20492;-60
2023/07/21 01:58:04;;;;;;;10.73;4.43;;;13.90;99.90;;;;;;5063791;28;20056;-61
2023/07/21 02:00:33;;;;;;;7.40;3.83;;;13.90;99.90;;;;;;5081951;28;20056;-61
2023/07/21 02:03:01;;;;;;;8.82;4.25;;;13.90;99.90;;;;;;5081166;28;20045;-61
2023/07/21 02:05:27;;;;;;;10.05;3.88;;;13.80;99.90;;;;;;5081934;28;20041;-61
2023/07/21 02:07:53;;;;;;;8.00;4.22;;;13.80;99.90;;;;;;5080238;28;20148;-61
2023/07/21 02:10:20;;;;;;;8.25;4.28;;;13.80;99.90;;;;;;5082012;28;20367;-61
2023/07/21 02:12:45;;;;;;;9.10;4.38;;;13.70;99.90;;;;;;5080836;28;20447;-59
2023/07/21 02:15:11;;;;;;;8.38;4.00;;;13.70;99.90;;;;;;5081427;28;20115;-59
2023/07/21 02:17:38;;;;;;;8.80;4.10;;;13.70;99.90;;;;;;5081318;28;20045;-58
2023/07/21 02:20:07;;;;;;;9.13;4.28;;;13.70;99.90;;;;;;5080609;28;20036;-59
2023/07/21 02:22:33;;;;;;;7.88;4.38;;;13.70;99.90;;;;;;5081667;28;20041;-59
2023/07/21 02:24:59;;;;;;;8.35;4.35;;;13.70;99.90;;;;;;5079730;28;20045;-59
2023/07/21 02:27:25;;;;;;;7.35;4.22;;;13.50;99.90;;;;;;5080190;28;20119;-58
2023/07/21 02:29:51;;;;;;;8.65;5.13;;;13.50;99.90;;;;;;5080390;28;20097;-58
2023/07/21 02:32:17;;;;;;;7.60;4.30;;;13.40;99.90;;;;;;5080850;28;20087;-59
2023/07/21 02:34:43;;;;;;;8.10;4.10;;;13.40;99.90;;;;;;5081077;28;20582;-58
2023/07/21 02:37:08;;;;;;;8.60;3.80;;;13.40;99.90;;;;;;5080103;28;20872;-58
2023/07/21 02:39:35;;;;;;;9.07;4.13;;;13.30;99.90;;;;;;5081178;28;20040;-59
2023/07/21 02:42:00;;;;;;;8.20;4.60;;;13.30;99.90;;;;;;5078499;28;20047;-59
2023/07/21 02:44:27;;;;;;;8.70;4.22;;;13.30;99.90;;;;;;5081294;28;20390;-58
2023/07/21 02:46:53;;;;;;;8.20;4.38;;;13.30;99.90;;;;;;5080062;28;20052;-59
2023/07/21 02:49:19;;;;;;;9.15;5.40;;;13.20;99.90;;;;;;5079352;28;20044;-59
2023/07/21 02:51:44;;;;;;;10.02;5.35;;;13.20;99.90;;;;;;5080722;28;20186;-58
2023/07/21 02:54:10;;;;;;;9.05;5.32;;;13.30;99.90;;;;;;5080291;28;20572;-59
2023/07/21 02:56:37;;;;;;;9.15;4.85;;;13.30;99.90;;;;;;5080555;28;20048;-58
2023/07/21 02:59:03;;;;;;;10.18;5.15;;;13.30;99.90;;;;;;5079462;28;20045;-59
2023/07/21 03:01:30;;;;;;;10.73;5.13;;;13.30;99.90;;;;;;5081013;28;20037;-59
2023/07/21 03:03:56;;;;;;;8.63;4.38;;;13.30;99.90;;;;;;5079527;28;20063;-58
2023/07/21 03:06:22;;;;;;;8.30;4.70;;;13.40;99.90;;;;;;5080565;28;20099;-59
2023/07/21 03:08:49;;;;;;;8.63;4.30;;;13.30;99.90;;;;;;5080300;28;20047;-59
2023/07/21 03:11:17;;;;;;;8.32;4.70;;;13.30;99.90;;;;;;5080018;28;20455;-59
2023/07/21 03:13:46;;;;;;;10.77;4.68;;;13.20;99.90;;;;;;5080649;28;20045;-58
2023/07/21 03:16:12;;;;;;;7.88;4.05;;;13.20;99.90;;;;;;5079194;28;20037;-59
2023/07/21 03:18:39;;;;;;;8.98;4.78;;;13.20;99.90;;;;;;5080712;28;20041;-58
2023/07/21 03:21:04;;;;;;;8.75;5.20;;;13.20;99.90;;;;;;5079605;28;20048;-58
2023/07/21 03:23:30;;;;;;;8.85;4.50;;;13.20;99.90;;;;;;5080304;28;20053;-59
2023/07/21 03:25:56;;;;;;;8.18;4.07;;;13.20;99.90;;;;;;5079660;28;20049;-59
2023/07/21 03:28:22;;;;;;;9.95;4.70;;;13.20;99.90;;;;;;5079564;28;20037;-59
2023/07/21 03:31:08;;;;;;;8.95;4.57;;;13.20;99.90;;;;;;5079962;28;20094;-59
2023/07/21 03:33:34;;;;;;;9.40;5.00;;;13.10;99.90;;;;;;5078982;28;20055;-59
2023/07/21 03:36:02;;;;;;;8.63;4.75;;;13.20;99.90;;;;;;5080367;28;20052;-59
2023/07/21 03:38:29;;;;;;;8.20;4.50;;;13.10;99.90;;;;;;5079132;28;20036;-59
2023/07/21 03:41:02;;;;;;;9.45;4.63;;;13.20;99.90;;;;;;5079730;28;20041;-59
2023/07/21 03:43:27;;;;;;;8.60;4.90;;;13.20;99.90;;;;;;5079773;28;20086;-59
2023/07/21 03:46:00;;;;;;;10.23;4.75;;;13.20;99.90;;;;;;5079175;28;20511;-58
2023/07/21 03:48:27;;;;;;;8.20;4.30;;;13.20;99.90;;;;;;5080106;28;20053;-59
2023/07/21 03:50:57;;;;;;;8.48;4.75;;;13.20;99.90;;;;;;5078492;28;20086;-58
2023/07/21 03:53:24;;;;;;;8.35;4.32;;;13.20;99.90;;;;;;5079815;28;20083;-58
2023/07/21 03:55:50;;;;;;;8.80;4.10;;;13.20;99.90;;;;;;5079078;28;20100;-58
2023/07/21 03:58:15;;;;;;;9.57;4.82;;;13.30;99.90;;;;;;5069194;28;20078;-59
2023/07/21 04:00:42;;;;;;;8.63;4.38;;;13.20;99.90;;;;;;5073135;28;20097;-59
2023/07/21 04:03:12;;;;;;;8.93;5.05;;;13.20;99.90;;;;;;5066504;28;20143;-58
2023/07/21 04:05:38;;;;;;;9.25;4.55;;;13.10;99.90;;;;;;5059771;28;20044;-58
2023/07/21 04:08:04;;;;;;;8.70;4.28;;;13.20;99.90;;;;;;5057388;28;20076;-58
2023/07/21 04:10:30;;;;;;;9.43;4.70;;;13.10;99.90;;;;;;5059397;28;20048;-58
2023/07/21 04:12:57;;;;;;;8.95;4.55;;;13.30;99.90;;;;;;5062217;28;20120;-55
2023/07/21 04:15:25;;;;;;;9.57;4.75;;;13.20;99.90;;;;;;5078910;28;20293;-58
2023/07/21 04:17:51;;;;;;;9.00;4.85;;;13.20;99.90;;;;;;5079333;28;20476;-58
2023/07/21 04:20:16;;;;;;;10.20;5.15;;;13.30;99.90;;;;;;5078079;28;20048;-59
2023/07/21 04:22:42;;;;;;;10.52;5.40;;;13.30;99.90;;;;;;5078996;28;20049;-58
2023/07/21 04:25:08;;;;;;;7.22;4.30;;;13.40;99.90;;;;;;5077616;28;20078;-59
2023/07/21 04:27:35;;;;;;;9.18;4.93;;;13.30;99.90;;;;;;5079279;28;20193;-58
2023/07/21 04:30:01;;;;;;;9.05;5.07;;;13.40;99.90;;;;;;5078368;28;20036;-58
2023/07/21 04:32:27;;;;;;;9.02;4.93;;;13.40;99.90;;;;;;5078369;28;20056;-59
2023/07/21 04:34:53;;;;;;;8.98;5.18;;;13.30;99.90;;;;;;5078886;28;20496;-58
2023/07/21 04:37:18;;;;;;;9.52;4.90;;;13.30;99.90;;;;;;5077571;28;20104;-56
2023/07/21 04:39:44;;;;;;;9.20;5.35;;;13.40;99.90;;;;;;5079220;28;20056;-56
2023/07/21 04:42:10;;;;;;;11.02;5.20;;;13.50;99.90;;;;;;5077511;28;20048;-57
2023/07/21 04:44:35;;;;;;;9.18;5.63;;;13.40;99.90;;;;;;5078877;28;20044;-56
2023/07/21 04:47:04;;;;;;;11.57;5.07;;;13.50;99.90;;;;;;5077968;28;20056;-56
2023/07/21 04:49:31;;;;;;;11.38;5.78;;;13.50;99.90;;;;;;5078412;28;20052;-57
2023/07/21 04:51:58;;;;;;;10.32;4.93;;;13.40;99.90;;;;;;5076843;28;20075;-56
2023/07/21 04:54:25;;;;;;;12.43;5.63;;;13.50;99.90;;;;;;5077812;28;20044;-56
2023/07/21 04:56:52;;;;;;;9.80;4.72;;;13.50;99.90;;;;;;5078722;28;20055;-55
2023/07/21 04:59:19;;;;;;;13.70;5.10;;;13.60;99.90;;;;;;5075887;28;20083;-56
2023/07/21 05:01:47;;;;;;;9.45;4.53;;;13.70;99.90;;;;;;5078705;28;20045;-57
2023/07/21 05:04:19;;;;;;;9.00;5.07;;;13.80;99.90;;;;;;5076785;28;20403;-54
2023/07/21 05:06:47;;;;;;;9.23;4.75;;;13.90;99.90;;;;;;5072488;28;20098;-56
2023/07/21 05:09:13;;;;;;;8.60;5.20;;;13.80;99.90;;;;;;5074730;28;20123;-55
2023/07/21 05:11:39;;;;;;;9.60;4.68;;;13.90;99.90;;;;;;5073851;28;20052;-56
2023/07/21 05:14:04;;;;;;;11.13;5.10;;;13.90;99.90;;;;;;5072088;28;20090;-55
2023/07/21 05:16:31;;;;;;;9.32;5.05;;;14.00;99.90;;;;;;5057698;28;20045;-55
2023/07/21 05:18:58;;;;;;;9.00;4.75;;;14.10;99.90;;;;;;5065355;28;20131;-55
2023/07/21 05:21:23;;;;;;;10.07;4.82;;;14.20;99.90;;;;;;5057956;28;20044;-54
2023/07/21 05:23:49;;;;;;;9.00;5.07;;;14.20;99.90;;;;;;5062937;28;20051;-55
2023/07/21 05:26:16;;;;;;;8.65;4.72;;;14.30;99.90;;;;;;5059701;28;20052;-53
2023/07/21 05:28:41;;;;;;;11.32;5.28;;;14.30;99.90;;;;;;5073213;28;20096;-55
2023/07/21 05:31:11;;;;;;;8.52;4.70;;;14.40;99.90;;;;;;5074138;28;20075;-54
2023/07/21 05:33:37;;;;;;;9.35;4.75;;;14.50;99.90;;;;;;5073134;28;20056;-55
2023/07/21 05:36:08;;;;;;;8.48;4.30;;;14.60;99.90;;;;;;5074351;28;20036;-55
2023/07/21 05:38:35;;;;;;;7.65;4.30;;;14.80;99.90;;;;;;5073681;28;20486;-55
2023/07/21 05:41:01;;;;;;;8.77;4.45;;;14.80;99.90;;;;;;5073354;28;20057;-55
2023/07/21 05:43:27;;;;;;;9.55;4.05;;;14.90;99.90;;;;;;5074349;28;20047;-55
2023/07/21 05:45:53;;;;;;;10.25;4.75;;;14.90;99.90;;;;;;5073183;28;20044;-55
2023/07/21 05:48:19;;;;;;;8.93;4.25;;;15.00;99.90;;;;;;5074327;28;20079;-55
2023/07/21 05:50:44;;;;;;;7.68;4.10;;;15.00;99.90;;;;;;5072945;28;20044;-55
2023/07/21 05:53:10;;;;;;;9.15;3.53;;;15.10;99.90;;;;;;5073857;28;20036;-55
2023/07/21 05:55:37;;;;;;;9.75;4.10;;;15.20;99.90;;;;;;5073512;28;20059;-54
2023/07/21 05:58:02;;;;;;;7.28;3.47;;;15.40;99.90;;;;;;5067667;28;20553;-55
2023/07/21 06:00:28;;;;;;;11.05;3.85;;;15.40;99.90;;;;;;5061139;28;20104;-55
2023/07/21 06:02:54;;;;;;;8.05;3.65;;;15.30;99.90;;;;;;5068615;28;20159;-55
2023/07/21 06:05:19;;;;;;;7.88;3.80;;;15.40;99.90;;;;;;5052788;28;20049;-56
2023/07/21 06:07:45;;;;;;;7.82;3.95;;;15.40;99.90;;;;;;5052696;28;20053;-55
2023/07/21 06:10:12;;;;;;;7.10;4.03;;;15.50;99.90;;;;;;5058702;28;20096;-56
2023/07/21 06:12:38;;;;;;;8.00;4.50;;;15.50;99.90;;;;;;5063662;28;20044;-54
2023/07/21 06:15:08;;;;;;;8.18;4.00;;;15.50;99.90;;;;;;5059674;28;20490;-55
2023/07/21 06:17:33;;;;;;;7.30;3.30;;;15.70;99.90;;;;;;5051800;28;20167;-54
2023/07/21 06:20:00;;;;;;;8.88;4.55;;;15.70;99.90;;;;;;5053062;28;20033;-56
2023/07/21 06:22:26;;;;;;;8.30;3.80;;;15.80;99.90;;;;;;5053966;28;20080;-55
2023/07/21 06:24:52;;;;;;;7.28;3.83;;;15.90;99.90;;;;;;5052615;28;20037;-56
2023/07/21 06:27:18;;;;;;;8.52;4.22;;;16.00;99.90;;;;;;5053790;28;20095;-55
2023/07/21 06:29:44;;;;;;;6.57;3.47;;;16.20;99.90;;;;;;5052461;28;20075;-55
2023/07/21 06:32:09;;;;;;;6.90;3.70;;;16.40;99.90;;;;;;5056664;28;20554;-55
2023/07/21 06:34:35;;;;;;;8.32;4.00;;;16.50;99.90;;;;;;5057213;28;20053;-55
2023/07/21 06:37:01;;;;;;;7.65;3.88;;;16.60;99.90;;;;;;5056857;28;20080;-54
2023/07/21 06:39:26;;;;;;;7.85;3.58;;;16.90;99.90;;;;;;5068557;28;20043;-55
2023/07/21 06:41:53;;;;;;;7.22;3.08;;;16.90;99.90;;;;;;5069171;28;20566;-56
2023/07/21 06:44:20;;;;;;;8.05;3.45;;;16.80;99.90;;;;;;5059558;28;20303;-55
2023/07/21 06:46:47;;;;;;;8.23;2.95;;;16.80;99.90;;;;;;5075946;28;20070;-55
2023/07/21 06:49:17;;;;;;;6.55;2.72;;;16.90;99.90;;;;;;5077276;28;20136;-56
2023/07/21 06:51:43;;;;;;;7.38;3.33;;;17.10;99.90;;;;;;5076877;28;20049;-54
2023/07/21 06:54:09;;;;;;;6.35;2.72;;;17.10;99.90;;;;;;5075734;28;20046;-57
2023/07/21 06:56:35;;;;;;;7.70;2.75;;;16.80;99.90;;;;;;5075051;28;20122;-57
2023/07/21 06:59:01;;;;;;;6.05;3.03;;;16.80;99.90;;;;;;5065675;28;20416;-57
2023/07/21 07:01:27;;;;;;;7.38;2.67;;;16.90;99.90;;;;;;5057792;28;20041;-57
2023/07/21 07:03:53;;;;;;;7.07;3.08;;;17.10;99.90;;;;;;5069399;28;20589;-57
2023/07/21 07:06:19;;;;;;;5.93;3.05;;;17.20;99.90;;;;;;5062641;28;20033;-57
2023/07/21 07:08:44;;;;;;;6.65;2.83;;;17.20;99.90;;;;;;5062543;28;20047;-56
2023/07/21 07:11:11;;;;;;;6.82;3.03;;;17.20;99.90;;;;;;5064621;28;20643;-57
2023/07/21 07:13:37;;;;;;;6.68;2.75;;;17.20;99.90;;;;;;5067508;28;20569;-56
2023/07/21 07:16:03;;;;;;;7.45;2.72;;;17.30;99.90;;;;;;5065297;28;20041;-57
2023/07/21 07:18:29;;;;;;;5.85;2.55;;;17.40;99.90;;;;;;5066791;28;20104;-57
2023/07/21 07:20:56;;;;;;;6.78;3.08;;;17.30;99.90;;;;;;5069499;28;20123;-57
2023/07/21 07:23:23;;;;;;;7.65;2.75;;;17.20;99.90;;;;;;5075753;28;20047;-56
2023/07/21 07:25:50;;;;;;;5.47;2.47;;;17.30;99.90;;;;;;5074036;28;20055;-56
2023/07/21 07:28:18;;;;;;;8.80;2.90;;;17.20;99.90;;;;;;5072674;28;20048;-57
2023/07/21 07:30:45;;;;;;;5.70;2.97;;;17.10;99.90;;;;;;5075443;28;20036;-58
2023/07/21 07:33:11;;;;;;;5.82;2.90;;;16.90;99.90;;;;;;5072947;28;20059;-56
2023/07/21 07:35:45;;;;;;;6.65;3.25;;;17.00;99.90;;;;;;5076497;28;20036;-56
2023/07/21 07:38:11;;;;;;;6.60;2.95;;;17.10;99.90;;;;;;5074370;28;20032;-57
2023/07/21 07:40:37;;;;;;;6.90;2.92;;;17.20;99.90;;;;;;5075544;28;20127;-55
2023/07/21 07:43:03;;;;;;;7.18;3.30;;;16.90;99.90;;;;;;5074843;28;20071;-56
2023/07/21 07:45:29;;;;;;;5.60;2.80;;;17.10;99.90;;;;;;5074907;28;20653;-57
2023/07/21 07:47:55;;;;;;;7.57;3.30;;;17.10;99.90;;;;;;5066050;28;20049;-56
2023/07/21 07:50:21;;;;;;;5.68;2.80;;;17.10;99.90;;;;;;5065920;28;20048;-58
2023/07/21 07:52:47;;;;;;;5.75;2.67;;;17.10;99.90;;;;;;5071232;28;20032;-56
2023/07/21 07:55:15;;;;;;;6.00;2.63;;;17.20;99.90;;;;;;5074426;28;20046;-57
2023/07/21 07:57:40;;;;;;;7.07;3.38;;;17.20;99.90;;;;;;5075832;28;20297;-57
2023/07/21 08:00:08;;;;;;;7.18;3.30;;;17.20;99.90;;;;;;5075641;28;20183;-56
2023/07/21 08:02:34;;;;;;;5.93;2.90;;;17.10;99.90;;;;;;5062385;28;20048;-57
2023/07/21 08:04:59;;;;;;;6.50;2.90;;;17.30;99.90;;;;;;5061781;28;20052;-56
2023/07/21 08:07:25;;;;;;;5.80;2.97;;;17.40;99.90;;;;;;5062162;28;20609;-55
2023/07/21 08:09:51;;;;;;;5.07;2.38;;;17.60;99.90;;;;;;5063689;28;20051;-58
2023/07/21 08:12:17;;;;;;;5.10;2.42;;;17.70;99.90;;;;;;5066322;28;20037;-56
2023/07/21 08:14:43;;;;;;;6.85;2.70;;;17.50;99.90;;;;;;5057623;28;20036;-57
2023/07/21 08:17:09;;;;;;;5.55;2.75;;;17.30;99.90;;;;;;5064996;28;20041;-57
2023/07/21 08:19:34;;;;;;;6.18;2.47;;;17.40;99.90;;;;;;5058233;28;20609;-57
2023/07/21 08:22:06;;;;;;;6.72;2.33;;;17.70;99.90;;;;;;5065748;28;20056;-57
2023/07/21 08:24:33;;;;;;;5.22;2.50;;;17.50;99.90;;;;;;5056042;28;20487;-56
2023/07/21 08:26:59;;;;;;;4.18;1.70;;;17.40;99.90;;;;;;5063661;28;20051;-56
2023/07/21 08:29:26;;;;;;;5.40;2.60;;;17.50;99.90;;;;;;5058312;28;20037;-56
2023/07/21 08:31:52;;;;;;;5.40;2.55;;;17.60;99.90;;;;;;5073021;28;20071;-57
2023/07/21 08:34:18;;;;;;;5.43;2.58;;;17.80;99.90;;;;;;5067430;28;20657;-56
2023/07/21 08:36:44;;;;;;;6.03;2.75;;;17.90;99.90;;;;;;5054439;28;20053;-57
2023/07/21 08:39:09;;;;;;;5.63;2.70;;;18.10;99.90;;;;;;5055035;28;20048;-57
2023/07/21 08:41:42;;;;;;;5.32;2.70;;;18.10;99.90;;;;;;5059490;28;20048;-57
2023/07/21 08:44:09;;;;;;;5.53;2.80;;;17.90;99.90;;;;;;5058911;28;20120;-56
2023/07/21 08:46:34;;;;;;;5.55;2.78;;;18.00;99.90;;;;;;5055868;28;20053;-56
2023/07/21 08:49:01;;;;;;;5.78;2.28;;;18.00;99.90;;;;;;5058687;28;20093;-56
2023/07/21 08:51:27;;;;;;;8.38;3.05;;;18.20;99.90;;;;;;5058365;28;20041;-56
2023/07/21 08:53:52;;;;;;;7.22;4.22;;;18.20;99.90;;;;;;5070874;28;20046;-57
2023/07/21 08:56:18;;;;;;;7.90;3.83;;;18.10;99.90;;;;;;5078839;28;20040;-56
2023/07/21 08:58:44;;;;;;;6.72;3.35;;;18.60;99.90;;;;;;5077838;28;20104;-57
2023/07/21 09:01:09;;;;;;;6.18;2.88;;;19.00;99.90;;;;;;5078562;28;20048;-57
2023/07/21 09:03:35;;;;;;;6.43;2.53;;;19.00;99.90;;;;;;5077120;28;20044;-57
2023/07/21 09:06:01;;;;;;;6.28;2.40;;;19.00;99.90;;;;;;5078499;28;20051;-57
2023/07/21 09:08:33;;;;;;;5.57;2.83;;;19.00;99.90;;;;;;5077844;28;20543;-57
2023/07/21 09:11:00;;;;;;;4.90;2.10;;;18.70;99.90;;;;;;5077940;28;20044;-58
2023/07/21 09:13:27;;;;;;;4.43;1.95;;;18.90;99.90;;;;;;5078586;28;20032;-58
2023/07/21 09:15:54;;;;;;;4.03;1.48;;;18.90;99.90;;;;;;5077313;28;20872;-62
2023/07/21 09:18:31;;;;;;;4.70;1.67;;;19.00;99.90;;;;;;5078570;28;20045;-57
2023/07/21 09:20:57;;;;;;;4.60;2.20;;;19.10;99.90;;;;;;5077421;28;20102;-58
2023/07/21 09:23:24;;;;;;;5.00;1.73;;;19.00;99.90;;;;;;5078185;28;20048;-58
2023/07/21 09:25:55;;;;;;;4.63;1.90;;;19.10;99.90;;;;;;5078029;28;20195;-56
2023/07/21 09:28:37;;;;;;;5.07;2.20;;;19.10;99.90;;;;;;5077675;28;20044;-54
2023/07/21 09:31:02;;;;;;;5.35;2.05;;;18.80;99.90;;;;;;5078123;28;20044;-57
2023/07/21 09:33:28;;;;;;;3.92;1.60;;;19.30;99.90;;;;;;5076740;28;20060;-56
2023/07/21 09:36:08;;;;;;;4.60;1.85;;;19.80;99.90;;;;;;5078091;28;20044;-56
2023/07/21 09:38:35;;;;;;;4.72;1.40;;;19.30;94.70;;;;;;5077249;28;20393;-55
2023/07/21 09:41:06;;;;;;;4.10;1.30;;;19.40;95.70;;;;;;5077467;28;20032;-56
2023/07/21 09:43:32;;;;;;;3.85;1.30;;;19.40;95.00;;;;;;5078158;28;20033;-55
2023/07/21 09:46:07;;;;;;;3.60;1.00;;;19.30;95.70;;;;;;5076417;28;20052;-56
2023/07/21 09:48:34;;;;;;;3.33;1.40;;;19.10;87.30;;;;;;5078408;28;20059;-56
2023/07/21 09:51:04;;;;;;;3.88;1.35;;;19.40;93.90;;;;;;5076633;28;20043;-55
2023/07/21 09:53:36;;;;;;;3.37;1.27;;;19.50;95.00;;;;;;5077944;28;20131;-57
2023/07/21 09:56:04;;;;;;;4.15;1.50;;;19.50;92.50;;;;;;5077274;28;20044;-54
2023/07/21 09:58:31;;;;;;;5.05;1.80;;;19.50;94.00;;;;;;5077295;28;20048;-57
2023/07/21 10:01:02;;;;;;;5.35;2.05;;;19.40;93.10;;;;;;5076682;28;20045;-56
2023/07/21 10:03:29;;;;;;;5.88;1.70;;;19.40;92.90;;;;;;5076710;28;20052;-56
2023/07/21 10:05:57;;;;;;;2.92;1.13;;;19.20;91.90;;;;;;5079853;28;20125;-57
2023/07/21 10:08:23;;;;;;;2.92;1.20;;;19.30;93.20;;;;;;5080946;28;20037;-56
2023/07/21 10:10:49;;;;;;;2.70;1.10;;;19.30;93.50;;;;;;5081168;28;20048;-55
2023/07/21 10:13:15;;;;;;;3.63;1.20;;;19.30;87.80;;;;;;5081497;28;20047;-56
2023/07/21 10:15:45;;;;;;;4.07;1.40;;;19.40;91.60;;;;;;5080759;28;20051;-57
2023/07/21 10:18:11;;;;;;;4.07;1.60;;;19.40;92.10;;;;;;5081367;28;20470;-55
2023/07/21 10:20:50;;;;;;;4.30;1.77;;;19.00;91.70;;;;;;5080350;28;20040;-56
2023/07/21 10:23:24;;;;;;;4.65;1.80;;;19.00;94.80;;;;;;5081241;28;20048;-57
2023/07/21 10:25:58;;;;;;;5.03;2.10;;;19.00;97.00;;;;;;5080981;28;20082;-56
2023/07/21 10:28:35;;;;;;;4.05;1.60;;;18.80;98.20;;;;;;5075703;28;20048;-56
2023/07/21 10:31:27;;;;;;;6.22;2.45;;;19.00;99.20;;;;;;5067220;28;20044;-55
2023/07/21 10:34:16;;;;;;;8.77;2.25;;;19.10;99.90;;;;;;5069855;28;20052;-56
2023/07/21 10:36:47;;;;;;;6.22;2.40;;;19.10;99.50;;;;;;5070911;28;20107;-57
2023/07/21 10:39:19;;;;;;;4.90;1.88;;;19.10;99.90;;;;;;5066192;28;20143;-55
2023/07/21 10:41:46;;;;;;;4.88;2.20;;;19.50;99.90;;;;;;5067274;28;20395;-56
2023/07/21 10:44:12;;;;;;;5.93;2.05;;;19.50;98.70;;;;;;5063607;28;20051;-57
2023/07/21 10:46:39;;;;;;;5.82;2.30;;;19.50;96.50;;;;;;5058943;28;20104;-56
2023/07/21 10:49:06;;;;;;;6.68;2.92;;;19.50;96.50;;;;;;5060636;28;20051;-56
2023/07/21 10:51:31;;;;;;;6.78;2.90;;;19.30;99.90;;;;;;5060385;28;20045;-56
2023/07/21 10:53:57;;;;;;;6.90;3.13;;;19.20;99.90;;;;;;5073464;28;20043;-56
2023/07/21 10:56:23;;;;;;;6.75;3.55;;;19.20;99.90;;;;;;5079954;28;20124;-56
2023/07/21 10:58:52;;;;;;;6.60;3.38;;;19.10;99.90;;;;;;5078669;28;20063;-56
2023/07/21 11:01:19;;;;;;;7.65;3.80;;;19.20;99.90;;;;;;5081216;28;20102;-57
2023/07/21 11:03:48;;;;;;;5.30;2.70;;;19.40;99.90;;;;;;5079674;28;20109;-57
2023/07/21 11:06:15;;;;;;;5.60;2.33;;;19.20;98.50;;;;;;5080666;28;20100;-57
2023/07/21 11:08:40;;;;;;;6.07;2.28;;;19.30;98.40;;;;;;5080167;28;20495;-56
2023/07/21 11:11:08;;;;;;;5.10;1.92;;;19.40;96.90;;;;;;5079860;28;20036;-55
2023/07/21 11:13:35;;;;;;;5.88;2.45;;;19.80;95.70;;;;;;5074274;28;20075;-56
2023/07/21 11:16:02;;;;;;;5.05;2.10;;;20.00;92.60;;;;;;5066465;28;20068;-57
2023/07/21 11:18:28;;;;;;;6.50;2.38;;;20.30;93.60;;;;;;5071376;28;20110;-57
2023/07/21 11:20:55;;;;;;;5.55;2.40;;;20.00;86.80;;;;;;5072247;28;20488;-56
2023/07/21 11:23:26;;;;;;;4.45;2.22;;;20.00;81.80;;;;;;5068497;28;20045;-57
2023/07/21 11:26:04;;;;;;;5.18;2.10;;;20.00;83.20;;;;;;5076489;28;20051;-57
2023/07/21 11:28:30;;;;;;;4.85;2.20;;;20.10;83.40;;;;;;5079137;28;20049;-57
2023/07/21 11:30:56;;;;;;;5.30;1.98;;;20.40;81.70;;;;;;5080492;28;20117;-56
2023/07/21 11:33:23;;;;;;;5.07;1.90;;;20.50;82.90;;;;;;5072483;28;20064;-57
2023/07/21 11:35:50;;;;;;;5.38;1.77;;;20.60;83.70;;;;;;5063832;28;20063;-56
2023/07/21 11:38:15;;;;;;;5.88;2.08;;;20.70;84.10;;;;;;5057224;28;20061;-57
2023/07/21 11:40:45;;;;;;;5.20;2.17;;;20.70;75.10;;;;;;5062457;28;20145;-57
2023/07/21 11:43:12;;;;;;;4.57;1.98;;;20.40;75.50;;;;;;5066898;28;20110;-57
2023/07/21 11:45:39;;;;;;;4.38;1.73;;;20.30;70.40;;;;;;5067511;28;20044;-54
2023/07/21 11:48:18;;;;;;;6.13;2.40;;;20.30;75.90;;;;;;5060890;28;20145;-57
2023/07/21 11:50:51;;;;;;;8.50;3.10;;;19.20;96.40;;;;;;5065173;28;20053;-56
2023/07/21 11:53:18;;;;;;;6.78;2.55;;;17.90;99.90;;;;;;5065856;28;20087;-57
2023/07/21 11:55:44;;;;;;;5.65;2.63;;;17.50;99.90;;;;;;5061915;28;20068;-56
2023/07/21 11:58:11;;;;;;;7.38;2.70;;;17.10;99.90;;;;;;5064149;28;20069;-58
2023/07/21 12:00:38;;;;;;;10.55;3.10;;;17.00;99.90;;;;;;5065346;28;20124;-56
2023/07/21 12:03:04;;;;;;;7.32;3.20;;;17.20;99.90;;;;;;5063087;28;20036;-56
2023/07/21 12:05:31;;;;;;;7.22;3.10;;;17.60;99.90;;;;;;5066438;28;20078;-56
2023/07/21 12:07:59;;;;;;;5.88;2.58;;;17.40;99.90;;;;;;5063777;28;20033;-57
2023/07/21 12:10:24;;;;;;;9.32;3.05;;;17.10;99.90;;;;;;5064271;28;20055;-56
2023/07/21 12:12:51;;;;;;;7.30;3.00;;;17.10;99.90;;;;;;5064962;28;20037;-55
2023/07/21 12:15:18;;;;;;;8.50;2.85;;;17.00;99.90;;;;;;5065028;28;20041;-56
2023/07/21 12:17:44;;;;;;;5.38;2.20;;;16.90;99.90;;;;;;5063878;28;20040;-55
2023/07/21 12:20:11;;;;;;;5.65;2.38;;;17.20;99.90;;;;;;5062761;28;20580;-56
2023/07/21 12:22:41;;;;;;;8.20;3.10;;;17.30;99.90;;;;;;5065378;28;20036;-56
2023/07/21 12:25:08;;;;;;;7.95;3.65;;;17.50;99.90;;;;;;5063241;28;20056;-56
2023/07/21 12:27:36;;;;;;;5.97;2.67;;;17.30;99.90;;;;;;5062833;28;20032;-55
2023/07/21 12:30:10;;;;;;;10.05;2.75;;;17.40;99.90;;;;;;5065184;28;20047;-55
2023/07/21 12:32:36;;;;;;;5.82;2.53;;;17.40;99.90;;;;;;5067970;28;20057;-53
2023/07/21 12:35:04;;;;;;;6.55;3.10;;;17.50;99.90;;;;;;5076991;28;20427;-56
2023/07/21 12:37:30;;;;;;;7.07;2.45;;;17.10;99.90;;;;;;5069858;28;20120;-56
2023/07/21 12:39:56;;;;;;;6.57;2.40;;;16.90;99.90;;;;;;5069400;28;20033;-57
2023/07/21 12:42:22;;;;;;;6.63;2.50;;;16.80;99.90;;;;;;5060099;28;20067;-54
2023/07/21 12:44:48;;;;;;;6.53;2.70;;;16.60;99.90;;;;;;5058828;28;20053;-56